Time;durP1;ratioP1;P1;durP2;ratioP2;P2;SDS_P1;SDS_P2;PMS_P1;PMS_P2;Temp;Humidity;BMP_temperature;BMP_pressure;BME280_temperature;BME280_humidity;BME280_pressure;Samples;Min_cycle;Max_cycle;Signal;HPM_P1;HPM_P2
2022/12/31 00:01:07;;;;;;;3.83;3.73;;;;;;;10.96;100.00;96519.72;4956552;29;20196;-70
2022/12/31 00:03:33;;;;;;;4.77;4.57;;;;;;;11.00;100.00;96520.03;4957231;29;20197;-70
2022/12/31 00:05:58;;;;;;;3.63;3.53;;;;;;;11.03;100.00;96520.38;4957254;29;20268;-70
2022/12/31 00:08:24;;;;;;;4.57;4.37;;;;;;;11.07;100.00;96529.38;4951939;28;20581;-70
2022/12/31 00:10:49;;;;;;;3.97;3.87;;;;;;;11.11;100.00;96522.59;4949902;29;20189;-70
2022/12/31 00:13:15;;;;;;;4.53;4.33;;;;;;;11.14;100.00;96526.59;4957262;29;20189;-70
2022/12/31 00:15:42;;;;;;;6.83;6.37;;;;;;;11.19;100.00;96526.69;4956518;28;20187;-70
2022/12/31 00:18:08;;;;;;;8.43;8.03;;;;;;;11.18;100.00;96532.97;4957006;29;20190;-70
2022/12/31 00:20:37;;;;;;;7.67;7.37;;;;;;;11.15;100.00;96528.97;4956955;29;20189;-70
2022/12/31 00:23:03;;;;;;;9.07;8.67;;;;;;;11.21;100.00;96529.84;4956673;29;20185;-70
2022/12/31 00:25:28;;;;;;;6.73;6.43;;;;;;;11.22;100.00;96534.88;4956781;29;20216;-71
2022/12/31 00:27:54;;;;;;;7.33;7.00;;;;;;;11.26;100.00;96537.81;4956846;29;20185;-70
2022/12/31 00:30:20;;;;;;;9.77;9.37;;;;;;;11.25;100.00;96533.63;4956829;29;20213;-70
2022/12/31 00:32:45;;;;;;;10.70;10.20;;;;;;;11.28;100.00;96548.88;4956755;29;20191;-70
2022/12/31 00:35:11;;;;;;;9.60;9.17;;;;;;;11.27;100.00;96550.69;4956847;29;20197;-71
2022/12/31 00:37:36;;;;;;;7.93;7.63;;;;;;;11.41;100.00;96563.53;4955144;29;20189;-72
2022/12/31 00:40:03;;;;;;;8.57;8.17;;;;;;;11.41;100.00;96558.28;4956632;29;20230;-71
2022/12/31 00:42:28;;;;;;;10.37;9.87;;;;;;;11.44;100.00;96558.59;4956564;29;20225;-71
2022/12/31 00:44:53;;;;;;;7.47;7.17;;;;;;;11.45;100.00;96557.56;4939261;29;20229;-70
2022/12/31 00:47:19;;;;;;;6.03;5.80;;;;;;;11.45;100.00;96557.56;4956621;29;20197;-70
2022/12/31 00:49:44;;;;;;;5.03;4.83;;;;;;;11.43;100.00;96554.38;4956669;29;20185;-70
2022/12/31 00:52:12;;;;;;;5.40;5.10;;;;;;;11.44;100.00;96558.59;4939198;29;20190;-70
2022/12/31 00:54:38;;;;;;;5.83;5.53;;;;;;;11.51;100.00;96563.69;4961706;28;20224;-70
2022/12/31 00:57:03;;;;;;;5.90;5.70;;;;;;;11.50;100.00;96573.38;4975591;28;20655;-70
2022/12/31 00:59:28;;;;;;;5.10;4.90;;;;;;;11.47;100.00;96568.63;4975062;28;20189;-70
2022/12/31 01:01:53;;;;;;;6.20;5.90;;;;;;;11.46;100.00;96581.97;4975475;28;20195;-70
2022/12/31 01:04:20;;;;;;;5.23;4.93;;;;;;;11.46;100.00;96584.59;4975556;28;20243;-71
2022/12/31 01:06:46;;;;;;;5.73;5.37;;;;;;;11.43;100.00;96588.47;4974743;28;20181;-70
2022/12/31 01:09:14;;;;;;;6.23;5.93;;;;;;;11.46;100.00;96595.91;4975372;28;20196;-70
2022/12/31 01:11:40;;;;;;;6.87;6.57;;;;;;;11.50;100.00;96593.59;4975085;28;20189;-70
2022/12/31 01:14:17;;;;;;;6.47;6.17;;;;;;;11.49;100.00;96594.63;4975207;28;20188;-70
2022/12/31 01:16:46;;;;;;;5.43;5.23;;;;;;;11.46;100.00;96595.91;4975389;28;20706;-70
2022/12/31 01:19:30;;;;;;;6.80;6.50;;;;;;;11.44;100.00;96599.78;4975467;28;20194;-70
2022/12/31 01:21:56;;;;;;;6.20;5.90;;;;;;;11.39;100.00;96599.69;4975098;28;20189;-70
2022/12/31 01:24:21;;;;;;;8.33;7.73;;;;;;;11.41;100.00;96606.31;4975148;28;20299;-71
2022/12/31 01:26:47;;;;;;;12.40;11.20;;;;;;;11.40;100.00;96617.03;4973063;28;20206;-70
2022/12/31 01:29:13;;;;;;;13.10;11.60;;;;;;;11.41;100.00;96618.63;4975359;28;20180;-70
2022/12/31 01:31:39;;;;;;;9.83;9.33;;;;;;;11.35;100.00;96617.75;4975256;28;20177;-70
2022/12/31 01:34:05;;;;;;;9.57;9.07;;;;;;;11.36;100.00;96626.41;4974399;28;20200;-70
2022/12/31 01:36:32;;;;;;;9.63;9.23;;;;;;;11.27;100.00;96621.53;4974000;28;20240;-71
2022/12/31 01:38:59;;;;;;;9.17;8.77;;;;;;;11.18;100.00;96630.81;4974202;28;20196;-70
2022/12/31 01:41:28;;;;;;;7.47;7.17;;;;;;;11.22;100.00;96636.38;4974879;28;20683;-70
2022/12/31 01:44:17;;;;;;;7.63;7.23;;;;;;;11.20;100.00;96644.47;4974718;28;20213;-70
2022/12/31 01:46:50;;;;;;;7.37;7.07;;;;;;;11.14;100.00;96645.44;4972988;28;20188;-70
2022/12/31 01:49:17;;;;;;;6.63;6.10;;;;;;;11.11;100.00;96640.63;4974585;28;20280;-70
2022/12/31 01:51:45;;;;;;;8.53;8.13;;;;;;;11.23;100.00;96645.84;4944808;28;20266;-70
2022/12/31 01:54:14;;;;;;;7.80;7.50;;;;;;;11.26;100.00;96643.53;4974330;28;20594;-70
2022/12/31 01:56:42;;;;;;;8.63;8.10;;;;;;;11.33;100.00;96647.84;4974666;28;20236;-70
2022/12/31 01:59:09;;;;;;;9.90;9.33;;;;;;;11.43;100.00;96633.09;4973966;28;20196;-70
2022/12/31 02:01:37;;;;;;;9.73;9.33;;;;;;;11.41;100.00;96642.25;4974048;28;20184;-70
2022/12/31 02:04:07;;;;;;;7.60;7.20;;;;;;;11.37;100.00;96656.88;4974243;28;20242;-70
2022/12/31 02:06:38;;;;;;;5.50;5.20;;;;;;;11.42;100.00;96641.22;4973809;28;20189;-70
2022/12/31 02:09:04;;;;;;;6.03;5.73;;;;;;;11.43;100.00;96638.34;4974293;28;20263;-70
2022/12/31 02:11:34;;;;;;;7.27;6.97;;;;;;;11.42;100.00;96642.03;4973772;28;20271;-70
2022/12/31 02:14:03;;;;;;;7.83;7.53;;;;;;;11.45;100.00;96646.78;4973541;28;20664;-70
2022/12/31 02:16:53;;;;;;;7.20;6.80;;;;;;;11.36;100.00;96650.84;4956793;28;20188;-70
2022/12/31 02:19:49;;;;;;;5.03;4.83;;;;;;;11.40;100.00;96659.03;4974039;28;20552;-70
2022/12/31 02:22:21;;;;;;;4.67;4.47;;;;;;;11.43;100.00;96671.66;4973635;28;20215;-70
2022/12/31 02:24:57;;;;;;;3.10;3.00;;;;;;;11.45;100.00;96667.78;4958373;28;20219;-70
2022/12/31 02:27:50;;;;;;;3.87;3.60;;;;;;;11.44;100.00;96673.25;4974125;28;20636;-70
2022/12/31 02:30:20;;;;;;;3.20;3.10;;;;;;;11.53;100.00;96662.16;4974608;28;20645;-70
2022/12/31 02:33:07;;;;;;;3.33;3.17;;;;;;;11.61;100.00;96661.78;4973939;28;20211;-70
2022/12/31 02:35:47;;;;;;;3.87;3.77;;;;;;;11.66;100.00;96669.75;4974183;28;20577;-70
2022/12/31 02:38:28;;;;;;;7.73;7.27;;;;;;;11.66;100.00;96671.56;4972060;28;20211;-70
2022/12/31 02:40:55;;;;;;;7.90;7.37;;;;;;;11.74;100.00;96665.19;4959077;28;20180;-68
2022/12/31 02:43:20;;;;;;;10.63;10.03;;;;;;;11.76;100.00;96671.75;4973605;28;20233;-70
2022/12/31 02:45:55;;;;;;;13.57;12.87;;;;;;;11.72;100.00;96677.69;4973880;28;20747;-70
2022/12/31 02:48:48;;;;;;;14.60;13.90;;;;;;;11.70;100.00;96671.91;4973992;28;20190;-70
2022/12/31 02:51:32;;;;;;;14.53;13.70;;;;;;;11.71;100.00;96676.91;4964535;28;20542;-69
2022/12/31 02:54:00;;;;;;;13.50;12.87;;;;;;;11.70;100.00;96666.66;4973883;28;20192;-71
2022/12/31 02:56:50;;;;;;;16.07;15.27;;;;;;;11.71;100.00;96657.72;4953960;29;20197;-70
2022/12/31 03:02:18;;;;;;;4.57;4.37;;;;;;;11.60;100.00;96668.06;4954176;29;20251;-70
2022/12/31 03:04:52;;;;;;;6.63;6.23;;;;;;;11.65;100.00;96667.34;4937387;29;20261;-70
2022/12/31 03:07:21;;;;;;;6.80;6.50;;;;;;;11.63;100.00;96661.53;4953820;28;20213;-70
2022/12/31 03:09:47;;;;;;;7.10;6.70;;;;;;;11.63;100.00;96662.34;4953987;29;20312;-70
2022/12/31 03:14:57;;;;;;;21.43;20.37;;;;;;;11.61;100.00;96655.72;4954318;29;20244;-70
2022/12/31 03:17:23;;;;;;;23.90;22.70;;;;;;;11.57;100.00;96658.03;4937304;29;20185;-70
2022/12/31 03:22:37;;;;;;;6.93;6.63;;;;;;;11.70;100.00;96653.53;4954226;29;20184;-70
2022/12/31 03:27:49;;;;;;;7.03;6.73;;;;;;;11.70;100.00;96653.53;4954399;29;20204;-70
2022/12/31 03:30:16;;;;;;;5.60;5.40;;;;;;;11.73;100.00;96660.91;4954223;29;20190;-70
2022/12/31 03:32:43;;;;;;;5.77;5.47;;;;;;;11.81;100.00;96657.94;4953722;29;20547;-70
2022/12/31 03:35:10;;;;;;;14.77;13.87;;;;;;;11.82;100.00;96667.41;4954112;29;20215;-70
2022/12/31 03:37:36;;;;;;;12.40;11.80;;;;;;;11.80;100.00;96678.16;4951828;29;20277;-70
2022/12/31 03:40:02;;;;;;;8.00;7.60;;;;;;;12.01;100.00;96674.84;4953717;29;20268;-69
2022/12/31 03:42:27;;;;;;;6.40;5.90;;;;;;;12.07;100.00;96673.09;4954240;29;20192;-70
2022/12/31 03:44:53;;;;;;;12.50;11.90;;;;;;;12.14;100.00;96678.19;4953807;29;20563;-68
2022/12/31 03:47:18;;;;;;;12.67;11.97;;;;;;;12.14;100.00;96665.84;4954142;29;20513;-68
2022/12/31 03:49:43;;;;;;;13.77;12.87;;;;;;;12.25;100.00;96672.06;4954005;28;20500;-68
2022/12/31 03:52:09;;;;;;;16.53;15.53;;;;;;;12.30;100.00;96672.13;4957149;29;20197;-70
2022/12/31 03:54:34;;;;;;;14.07;13.30;;;;;;;12.29;100.00;96684.47;4944831;28;20228;-70
2022/12/31 03:56:59;;;;;;;10.50;10.00;;;;;;;12.34;100.00;96684.56;4976473;28;20694;-70
2022/12/31 03:59:25;;;;;;;5.17;4.97;;;;;;;12.41;100.00;96682.56;4976314;28;20192;-69
2022/12/31 04:01:50;;;;;;;3.50;3.40;;;;;;;12.44;100.00;96689.94;4959055;28;20189;-69
2022/12/31 04:04:15;;;;;;;4.10;3.90;;;;;;;12.57;100.00;96691.47;4976879;28;20259;-70
2022/12/31 04:06:41;;;;;;;4.00;3.80;;;;;;;12.57;100.00;96696.72;4975951;28;20196;-68
2022/12/31 04:09:06;;;;;;;4.87;4.63;;;;;;;12.58;100.00;96694.91;4976235;28;20187;-68
2022/12/31 04:11:31;;;;;;;5.87;5.60;;;;;;;12.66;100.00;96694.47;4976438;28;20193;-69
2022/12/31 04:13:59;;;;;;;8.83;8.43;;;;;;;12.64;100.00;96702.63;4975767;28;20195;-68
2022/12/31 04:16:25;;;;;;;8.37;8.03;;;;;;;12.68;100.00;96701.09;4976316;28;20188;-68
2022/12/31 04:18:50;;;;;;;9.27;8.77;;;;;;;12.70;100.00;96692.97;4975885;28;20191;-68
2022/12/31 04:21:15;;;;;;;7.60;7.30;;;;;;;12.68;100.00;96693.19;4975968;28;20217;-68
2022/12/31 04:23:41;;;;;;;6.27;6.07;;;;;;;12.69;100.00;96691.38;4976260;28;20211;-68
2022/12/31 04:26:06;;;;;;;8.57;8.17;;;;;;;12.72;100.00;96694.31;4958880;28;20204;-69
2022/12/31 04:28:32;;;;;;;7.40;7.07;;;;;;;12.76;100.00;96707.78;4975769;28;20185;-68
2022/12/31 04:30:57;;;;;;;7.30;6.90;;;;;;;12.74;100.00;96709.84;4958934;28;20196;-69
2022/12/31 04:33:22;;;;;;;5.47;5.07;;;;;;;12.74;100.00;96697.50;4976069;28;20293;-68
2022/12/31 04:35:47;;;;;;;5.80;5.60;;;;;;;12.75;100.00;96688.56;4973977;28;20296;-68
2022/12/31 04:38:13;;;;;;;8.73;8.23;;;;;;;12.66;100.00;96692.63;4975666;28;20191;-68
2022/12/31 04:41:15;;;;;;;7.03;6.67;;;;;;;12.63;100.00;96702.84;4975626;28;20201;-69
2022/12/31 04:43:23;;;;;;;3.03;2.93;;;;;;;12.63;100.00;96708.91;4975404;28;20192;-68
2022/12/31 04:45:49;;;;;;;3.33;3.13;;;;;;;12.61;100.00;96720.69;4975855;28;20209;-69
2022/12/31 04:48:14;;;;;;;4.00;3.83;;;;;;;12.61;100.00;96725.94;4975939;28;20176;-68
2022/12/31 04:50:39;;;;;;;3.70;3.57;;;;;;;12.61;100.00;96721.50;4975487;28;20199;-68
2022/12/31 04:53:05;;;;;;;3.30;3.20;;;;;;;12.64;100.00;96725.47;4975542;28;20193;-68
2022/12/31 04:55:30;;;;;;;3.70;3.60;;;;;;;12.73;100.00;96739.81;4975281;28;20247;-69
2022/12/31 04:57:55;;;;;;;3.70;3.60;;;;;;;12.62;100.00;96738.06;4975491;28;20180;-69
2022/12/31 05:00:21;;;;;;;3.43;3.33;;;;;;;12.71;100.00;96737.41;4975015;28;20197;-69
2022/12/31 05:02:46;;;;;;;3.50;3.30;;;;;;;12.65;100.00;96742.88;4975716;28;20177;-69
2022/12/31 05:05:11;;;;;;;3.13;3.03;;;;;;;12.64;100.00;96733.38;4975009;28;20203;-68
2022/12/31 05:07:36;;;;;;;2.90;2.80;;;;;;;12.63;100.00;96740.47;4974352;28;20203;-68
2022/12/31 05:10:02;;;;;;;3.50;3.30;;;;;;;12.63;100.00;96739.66;4974976;28;20267;-68
2022/12/31 05:12:27;;;;;;;4.67;4.47;;;;;;;12.54;100.00;96747.13;4975487;28;20267;-68
2022/12/31 05:14:53;;;;;;;6.60;6.20;;;;;;;12.46;100.00;96750.19;4974953;28;20670;-68
2022/12/31 05:17:19;;;;;;;5.27;5.07;;;;;;;12.43;100.00;96751.44;4974966;28;20183;-68
2022/12/31 05:19:44;;;;;;;5.60;5.40;;;;;;;12.36;100.00;96740.31;4974400;28;20791;-68
2022/12/31 05:25:05;;;;;;;4.03;3.83;;;;;;;12.38;100.00;96743.47;4959864;28;20224;-68
2022/12/31 05:27:30;;;;;;;5.77;5.37;;;;;;;12.34;100.00;96752.09;4974850;28;20239;-68
2022/12/31 05:29:55;;;;;;;6.10;5.83;;;;;;;12.38;100.00;96751.38;4974815;28;20188;-69
2022/12/31 05:32:21;;;;;;;9.20;8.73;;;;;;;12.34;100.00;96746.81;4974878;28;20343;-69
2022/12/31 05:34:46;;;;;;;8.70;8.33;;;;;;;12.40;100.00;96749.31;4972642;28;20197;-69
2022/12/31 05:37:11;;;;;;;6.33;6.03;;;;;;;12.34;100.00;96758.13;4974230;28;20181;-71
2022/12/31 05:39:37;;;;;;;6.20;6.00;;;;;;;12.37;100.00;96754.25;4974939;28;20551;-69
2022/12/31 05:42:02;;;;;;;6.97;6.57;;;;;;;12.41;100.00;96763.25;4974709;28;20667;-69
2022/12/31 05:44:27;;;;;;;6.50;6.20;;;;;;;12.44;100.00;96757.50;4974398;28;20694;-69
2022/12/31 05:46:53;;;;;;;7.40;7.10;;;;;;;12.42;100.00;96751.72;4974480;28;20576;-69
2022/12/31 05:49:18;;;;;;;6.53;6.23;;;;;;;12.38;100.00;96746.09;4974754;28;20632;-69
2022/12/31 05:51:43;;;;;;;5.83;5.57;;;;;;;12.41;100.00;96748.28;4974496;28;20622;-69
2022/12/31 05:54:09;;;;;;;6.10;5.50;;;;;;;12.44;100.00;96760.94;4974166;28;20271;-69
2022/12/31 05:56:34;;;;;;;6.17;5.90;;;;;;;12.43;100.00;96761.97;4974328;28;20185;-69
2022/12/31 05:58:59;;;;;;;7.63;7.33;;;;;;;12.41;100.00;96771.94;4956691;28;20642;-69
2022/12/31 06:01:25;;;;;;;7.60;7.20;;;;;;;12.45;100.00;96770.41;4956739;28;20636;-69
2022/12/31 06:03:50;;;;;;;7.00;6.70;;;;;;;12.41;100.00;96769.31;4974134;28;20686;-69
2022/12/31 06:06:15;;;;;;;7.30;6.90;;;;;;;12.41;100.00;96766.69;4965361;28;20185;-69
2022/12/31 06:08:41;;;;;;;6.77;6.50;;;;;;;12.37;100.00;96762.13;4967477;28;20644;-69
2022/12/31 06:11:06;;;;;;;7.07;6.77;;;;;;;12.41;100.00;96776.41;4974304;28;20551;-68
2022/12/31 06:13:32;;;;;;;6.53;6.23;;;;;;;12.46;100.00;96784.34;4973154;28;20566;-69
2022/12/31 06:15:57;;;;;;;7.73;7.43;;;;;;;12.41;100.00;96782.44;4974188;28;20263;-69
2022/12/31 06:18:22;;;;;;;7.77;7.33;;;;;;;12.45;100.00;96791.44;4974311;28;20184;-69
2022/12/31 06:20:48;;;;;;;7.60;7.20;;;;;;;12.45;100.00;96782.75;4974010;28;20244;-69
2022/12/31 06:23:13;;;;;;;4.90;4.70;;;;;;;12.51;100.00;96781.81;4973713;28;20351;-69
2022/12/31 06:25:38;;;;;;;6.53;6.27;;;;;;;12.52;100.00;96786.03;4973883;28;20212;-69
2022/12/31 06:28:04;;;;;;;7.17;6.87;;;;;;;12.52;100.00;96774.72;4973656;28;20185;-69
2022/12/31 06:30:30;;;;;;;7.67;7.37;;;;;;;12.51;100.00;96773.91;4956788;28;20602;-69
2022/12/31 06:32:56;;;;;;;10.33;9.83;;;;;;;12.50;100.00;96770.50;4956478;28;20212;-69
2022/12/31 06:35:21;;;;;;;13.33;12.73;;;;;;;12.48;100.00;96780.44;4971606;28;20196;-69
2022/12/31 06:37:46;;;;;;;16.30;15.53;;;;;;;12.47;100.00;96781.50;4973837;28;20659;-69
2022/12/31 06:40:13;;;;;;;13.87;13.17;;;;;;;12.48;100.00;96777.81;4973751;28;20239;-68
2022/12/31 06:42:38;;;;;;;15.33;14.63;;;;;;;12.53;100.00;96778.94;4956646;28;20203;-69
2022/12/31 06:45:04;;;;;;;13.23;12.63;;;;;;;12.55;100.00;96785.56;4956392;28;20205;-69
2022/12/31 06:47:30;;;;;;;11.43;10.93;;;;;;;12.58;100.00;96790.34;4973900;28;20195;-69
2022/12/31 06:49:55;;;;;;;9.53;9.13;;;;;;;12.55;100.00;96792.63;4974178;28;20180;-69
2022/12/31 06:52:20;;;;;;;8.50;8.10;;;;;;;12.55;100.00;96784.75;4973552;28;20192;-69
2022/12/31 06:54:46;;;;;;;6.83;6.53;;;;;;;12.54;100.00;96786.56;4966827;28;20221;-69
2022/12/31 06:57:12;;;;;;;6.17;5.93;;;;;;;12.55;100.00;96768.97;4954365;29;20644;-69
2022/12/31 06:59:38;;;;;;;6.37;5.93;;;;;;;12.56;100.00;96787.16;4953666;29;20189;-70
2022/12/31 07:02:07;;;;;;;7.67;7.37;;;;;;;12.56;100.00;96775.84;4954564;29;20188;-69
2022/12/31 07:04:47;;;;;;;6.10;5.80;;;;;;;12.49;100.00;96766.25;4953770;29;20280;-69
2022/12/31 07:07:17;;;;;;;4.60;4.40;;;;;;;12.51;100.00;96758.16;4953568;28;20185;-70
2022/12/31 07:10:01;;;;;;;4.93;4.70;;;;;;;12.55;100.00;96771.59;4952877;29;20185;-69
2022/12/31 07:12:51;;;;;;;5.53;5.33;;;;;;;12.51;100.00;96789.69;4937245;29;20193;-69
2022/12/31 07:15:23;;;;;;;4.80;4.60;;;;;;;12.62;100.00;96788.81;4954065;29;20191;-70
2022/12/31 07:18:05;;;;;;;6.47;6.07;;;;;;;12.60;100.00;96792.72;4953047;29;20181;-72
2022/12/31 07:20:31;;;;;;;5.37;5.13;;;;;;;12.61;100.00;96800.38;4954379;29;20178;-72
2022/12/31 07:22:56;;;;;;;5.97;5.57;;;;;;;12.67;100.00;96798.63;4954226;29;20192;-72
2022/12/31 07:25:22;;;;;;;7.17;6.87;;;;;;;12.69;100.00;96799.19;4956303;28;20742;-72
2022/12/31 07:28:29;;;;;;;5.37;5.17;;;;;;;12.67;100.00;96798.63;4957889;29;20590;-72
2022/12/31 07:31:06;;;;;;;4.90;4.70;;;;;;;12.72;100.00;96801.31;4956796;29;20201;-72
2022/12/31 07:33:56;;;;;;;4.10;4.00;;;;;;;12.64;100.00;96814.88;4957036;29;20200;-72
2022/12/31 07:36:31;;;;;;;3.80;3.70;;;;;;;12.76;100.00;96820.88;4944891;29;20264;-72
2022/12/31 07:39:13;;;;;;;4.77;4.57;;;;;;;12.79;100.00;96807.22;4957604;29;20262;-72
2022/12/31 07:41:53;;;;;;;6.00;5.73;;;;;;;12.87;100.00;96817.38;4957668;29;20173;-72
2022/12/31 07:45:00;;;;;;;7.97;7.63;;;;;;;12.88;100.00;96821.56;4943743;29;20695;-72
2022/12/31 07:47:27;;;;;;;6.90;6.60;;;;;;;13.00;100.00;96822.28;4957036;29;20327;-72
2022/12/31 07:49:53;;;;;;;8.70;8.30;;;;;;;12.97;100.00;96832.50;4957704;29;20194;-71
2022/12/31 07:52:20;;;;;;;17.33;16.50;;;;;;;12.99;100.00;96833.84;4957151;29;20248;-71
2022/12/31 07:54:45;;;;;;;12.67;12.07;;;;;;;13.03;100.00;96834.97;4945838;28;20217;-71
2022/12/31 07:57:13;;;;;;;8.77;8.40;;;;;;;13.06;100.00;96833.69;4976433;28;20200;-71
2022/12/31 07:59:56;;;;;;;6.03;5.47;;;;;;;13.16;100.00;96833.84;4975601;28;20613;-72
2022/12/31 08:02:56;;;;;;;5.40;5.20;;;;;;;13.17;100.00;96838.88;4962483;28;20184;-71
2022/12/31 08:05:46;;;;;;;8.00;7.67;;;;;;;13.22;100.00;96843.41;4976366;28;20244;-72
2022/12/31 08:08:14;;;;;;;9.77;9.33;;;;;;;13.26;100.00;96845.31;4960650;28;20201;-72
2022/12/31 08:10:48;;;;;;;11.07;10.37;;;;;;;13.94;100.00;96845.94;4976527;28;20189;-73
2022/12/31 08:13:15;;;;;;;7.30;7.00;;;;;;;13.87;100.00;96845.34;4975768;28;20703;-72
2022/12/31 08:15:41;;;;;;;6.57;6.30;;;;;;;13.73;100.00;96853.59;4976463;28;20198;-71
2022/12/31 08:18:07;;;;;;;10.47;9.90;;;;;;;13.73;100.00;96852.81;4975458;28;20181;-73
2022/12/31 08:20:42;;;;;;;18.87;17.87;;;;;;;13.73;100.00;96858.06;4976351;28;20188;-72
2022/12/31 08:23:31;;;;;;;19.10;18.10;;;;;;;13.80;100.00;96865.81;4976161;28;20241;-71
2022/12/31 08:26:14;;;;;;;14.30;13.60;;;;;;;13.86;100.00;96864.81;4975872;28;20208;-71
2022/12/31 08:28:55;;;;;;;8.87;8.47;;;;;;;13.91;100.00;96857.78;4958587;28;20191;-71
2022/12/31 08:31:29;;;;;;;8.37;7.97;;;;;;;13.95;100.00;96864.16;4976321;28;20200;-73
2022/12/31 08:34:04;;;;;;;7.07;6.77;;;;;;;14.05;100.00;96858.97;4973904;28;20203;-72
2022/12/31 08:36:44;;;;;;;6.03;5.83;;;;;;;13.98;100.00;96847.06;4970216;28;20216;-72
2022/12/31 08:39:24;;;;;;;6.23;5.83;;;;;;;13.94;100.00;96852.00;4995088;28;20179;-72
2022/12/31 08:41:53;;;;;;;6.93;6.63;;;;;;;13.95;100.00;96847.53;4978385;28;20580;-72
2022/12/31 08:44:34;;;;;;;7.23;6.73;;;;;;;14.02;100.00;96850.78;4975343;28;20698;-72
2022/12/31 08:47:05;;;;;;;6.90;6.60;;;;;;;14.05;100.00;96855.56;4975697;28;20204;-72
2022/12/31 08:49:33;;;;;;;7.70;6.97;;;;;;;14.10;100.00;96864.31;4975442;28;20207;-72
2022/12/31 08:51:59;;;;;;;7.10;6.80;;;;;;;14.09;100.00;96868.00;4975283;28;20185;-72
2022/12/31 08:54:25;;;;;;;7.43;7.07;;;;;;;14.20;100.00;96878.66;4972436;28;20224;-72
2022/12/31 08:57:02;;;;;;;5.57;5.27;;;;;;;14.15;100.00;96889.97;4975862;28;20187;-71
2022/12/31 08:59:56;;;;;;;5.03;4.83;;;;;;;14.20;100.00;96889.22;4975364;28;20180;-72
2022/12/31 09:02:36;;;;;;;4.97;4.77;;;;;;;14.25;100.00;96905.09;4975971;28;20184;-73
2022/12/31 09:05:12;;;;;;;7.47;6.90;;;;;;;14.26;100.00;96904.84;4976801;28;20208;-73
2022/12/31 09:07:43;;;;;;;5.53;5.23;;;;;;;14.34;100.00;96907.03;4975737;28;20167;-73
2022/12/31 09:10:19;;;;;;;7.87;7.57;;;;;;;14.24;100.00;96901.66;4975820;28;20524;-72
2022/12/31 09:12:51;;;;;;;14.23;13.57;;;;;;;14.26;100.00;96896.13;4957660;28;20178;-72
2022/12/31 09:15:22;;;;;;;23.00;21.80;;;;;;;14.32;100.00;96901.19;4956008;29;20664;-73
2022/12/31 09:17:51;;;;;;;18.23;17.23;;;;;;;14.44;100.00;96903.72;4956144;29;20184;-73
2022/12/31 09:20:27;;;;;;;20.27;19.27;;;;;;;14.58;100.00;96912.88;4956133;29;20173;-73
2022/12/31 09:22:53;;;;;;;14.77;14.07;;;;;;;14.65;100.00;96918.75;4955857;29;20170;-73
2022/12/31 09:25:20;;;;;;;23.80;22.47;;;;;;;14.75;99.47;96913.56;4956194;29;20205;-73
2022/12/31 09:28:00;;;;;;;28.37;26.93;;;;;;;14.74;98.85;96911.16;4955943;29;20225;-73
2022/12/31 09:30:28;;;;;;;17.73;16.73;;;;;;;14.78;98.99;96901.69;4956458;29;20169;-73
2022/12/31 09:33:15;;;;;;;42.60;40.33;;;;;;;14.80;98.29;96897.78;4957035;28;20189;-73
2022/12/31 09:35:51;;;;;;;58.47;55.40;;;;;;;14.99;97.37;96904.25;4975048;28;20181;-73
2022/12/31 09:38:23;;;;;;;81.17;76.87;;;;;;;15.06;96.18;96903.25;4975347;28;20635;-74
2022/12/31 09:40:57;;;;;;;55.78;52.83;;;;;;;15.14;95.24;96908.88;4957610;28;20173;-72
2022/12/31 09:43:53;;;;;;;26.33;25.00;;;;;;;15.23;94.52;96903.94;4974962;28;20177;-73
2022/12/31 09:46:43;;;;;;;21.90;20.73;;;;;;;15.26;94.21;96917.44;4974374;28;20600;-73
2022/12/31 09:49:32;;;;;;;29.27;27.80;;;;;;;15.30;93.79;96918.53;4974785;28;20252;-73
2022/12/31 09:52:35;;;;;;;33.65;31.83;;;;;;;15.38;93.43;96917.22;4974810;28;20181;-73
2022/12/31 09:55:32;;;;;;;16.38;15.50;;;;;;;15.47;91.77;96923.66;4974315;28;20296;-73
2022/12/31 09:58:14;;;;;;;17.08;16.23;;;;;;;15.51;91.94;96922.09;4946559;28;20340;-73
2022/12/31 10:00:50;;;;;;;11.95;11.35;;;;;;;15.57;91.30;96917.66;4958583;28;20177;-73
2022/12/31 10:03:39;;;;;;;16.48;15.65;;;;;;;15.58;89.99;96911.34;4962114;28;20756;-73
2022/12/31 10:06:27;;;;;;;30.35;28.80;;;;;;;15.65;88.93;96904.78;4973687;28;20279;-73
2022/12/31 10:09:04;;;;;;;23.30;22.17;;;;;;;15.67;88.27;96907.94;4974004;28;20268;-74
2022/12/31 10:11:32;;;;;;;16.67;15.85;;;;;;;15.73;88.37;96912.22;4973770;28;20184;-73
2022/12/31 10:14:23;;;;;;;12.68;12.07;;;;;;;15.92;87.01;96906.50;4973656;28;20196;-73
2022/12/31 10:16:56;;;;;;;15.30;14.48;;;;;;;15.88;86.38;96905.44;4973042;28;20536;-72
2022/12/31 10:19:54;;;;;;;39.00;36.95;;;;;;;16.00;85.16;96908.66;4965535;28;20183;-72
2022/12/31 10:22:57;;;;;;;30.33;28.58;;;;;;;15.93;85.21;96905.47;4955134;29;20715;-72
2022/12/31 10:25:22;;;;;;;19.00;17.88;;;;;;;15.90;85.49;96903.31;4954529;29;20287;-74
2022/12/31 10:27:54;;;;;;;29.80;28.27;;;;;;;16.06;84.35;96913.72;4954970;28;20268;-72
2022/12/31 10:30:21;;;;;;;26.92;25.52;;;;;;;16.07;83.78;96907.38;4937666;29;20185;-72
2022/12/31 10:33:23;;;;;;;35.85;33.95;;;;;;;16.01;83.18;96897.03;4958555;28;20296;-71
2022/12/31 10:35:57;;;;;;;31.55;29.83;;;;;;;16.04;83.96;96899.97;4974226;28;20172;-72
2022/12/31 10:38:44;;;;;;;36.03;34.15;;;;;;;16.14;83.53;96899.22;4974091;28;20169;-71
2022/12/31 10:41:40;;;;;;;35.17;33.35;;;;;;;16.15;83.62;96908.72;4973949;28;20169;-72
2022/12/31 10:44:20;;;;;;;32.80;31.08;;;;;;;16.11;83.59;96921.66;4973726;28;20699;-71
2022/12/31 10:46:55;;;;;;;24.00;22.63;;;;;;;16.10;82.58;96906.06;4974177;28;20504;-73
2022/12/31 10:49:58;;;;;;;24.30;23.00;;;;;;;16.13;82.51;96900.25;4956522;28;20590;-72
2022/12/31 10:52:48;;;;;;;28.90;27.48;;;;;;;16.12;82.12;96885.44;4924758;28;20278;-72
2022/12/31 10:55:51;;;;;;;26.35;25.08;;;;;;;16.07;81.70;96874.84;4972388;28;20228;-72
2022/12/31 10:58:31;;;;;;;19.67;18.77;;;;;;;16.13;82.31;96876.44;4974217;28;20192;-73
2022/12/31 11:01:15;;;;;;;17.60;16.77;;;;;;;16.17;80.36;96875.66;4960444;28;20177;-74
2022/12/31 11:04:19;;;;;;;16.02;15.23;;;;;;;16.21;80.42;96860.09;4958652;29;20200;-74
2022/12/31 11:07:03;;;;;;;18.92;18.02;;;;;;;16.22;79.58;96873.03;4899051;28;20569;-72
2022/12/31 11:09:56;;;;;;;21.05;20.05;;;;;;;16.22;79.77;96870.41;4996851;28;20582;-74
2022/12/31 11:12:48;;;;;;;15.88;15.07;;;;;;;16.30;78.10;96870.94;4981759;28;20173;-73
2022/12/31 11:15:19;;;;;;;19.90;18.80;;;;;;;16.37;78.23;96869.66;4958552;29;20938;-73
2022/12/31 11:18:15;;;;;;;20.45;19.35;;;;;;;16.42;77.98;96863.59;4957704;29;20506;-73
2022/12/31 11:20:59;;;;;;;20.63;19.58;;;;;;;16.49;76.75;96864.94;4958242;29;20180;-72
2022/12/31 11:23:30;;;;;;;28.08;26.60;;;;;;;16.56;76.88;96867.31;4957976;29;20329;-72
2022/12/31 11:26:04;;;;;;;48.72;46.15;;;;;;;16.54;75.74;96857.00;4957694;29;20356;-74
2022/12/31 11:29:01;;;;;;;39.38;37.35;;;;;;;16.63;75.93;96876.63;4958140;29;20188;-75
2022/12/31 11:31:44;;;;;;;41.63;39.45;;;;;;;16.66;75.68;96862.06;4957588;29;20596;-75
2022/12/31 11:34:29;;;;;;;47.88;45.38;;;;;;;16.70;74.91;96860.47;4976182;28;20263;-75
2022/12/31 11:37:30;;;;;;;59.50;56.40;;;;;;;16.67;75.29;96852.25;4976782;28;20204;-74
2022/12/31 11:40:17;;;;;;;43.70;41.45;;;;;;;16.73;74.46;96852.00;4967884;28;20207;-74
2022/12/31 11:43:07;;;;;;;30.50;28.85;;;;;;;16.71;73.98;96854.13;4976771;28;20275;-74
2022/12/31 11:45:54;;;;;;;37.67;35.70;;;;;;;16.84;73.75;96858.91;4976763;28;20336;-74
2022/12/31 11:48:43;;;;;;;39.72;37.65;;;;;;;16.87;73.73;96841.69;4971224;28;20252;-74
2022/12/31 11:51:39;;;;;;;43.17;40.92;;;;;;;16.94;74.12;96835.06;4957633;29;20181;-74
2022/12/31 11:54:41;;;;;;;40.35;38.05;;;;;;;16.85;73.45;96841.97;4964068;28;20188;-73
2022/12/31 11:57:49;;;;;;;42.30;40.13;;;;;;;16.96;73.56;96832.94;4976240;28;20565;-74
2022/12/31 12:00:19;;;;;;;39.63;37.60;;;;;;;17.03;73.45;96828.19;4897177;29;20184;-74
2022/12/31 12:02:50;;;;;;;54.05;51.22;;;;;;;17.03;73.31;96830.03;4898265;29;20606;-74